sensor_id;sensor_type;location;lat;lon;timestamp;P1;durP1;ratioP1;P2;durP2;ratioP2
12846;SDS011;6492;48.128;8.320;2023-05-10T00:01:11;0.77;;;0.77;;
12846;SDS011;6492;48.128;8.320;2023-05-10T00:05:13;0.67;;;0.67;;
12846;SDS011;6492;48.128;8.320;2023-05-10T00:09:15;0.83;;;0.83;;
12846;SDS011;6492;48.128;8.320;2023-05-10T00:13:18;0.50;;;0.50;;
12846;SDS011;6492;48.128;8.320;2023-05-10T00:17:20;0.53;;;0.53;;
12846;SDS011;6492;48.128;8.320;2023-05-10T00:21:22;0.30;;;0.30;;
12846;SDS011;6492;48.128;8.320;2023-05-10T00:25:23;0.63;;;0.53;;
12846;SDS011;6492;48.128;8.320;2023-05-10T00:29:27;1.17;;;0.40;;
12846;SDS011;6492;48.128;8.320;2023-05-10T00:33:29;1.33;;;0.60;;
12846;SDS011;6492;48.128;8.320;2023-05-10T00:37:30;1.50;;;1.20;;
12846;SDS011;6492;48.128;8.320;2023-05-10T00:41:32;0.60;;;0.60;;
12846;SDS011;6492;48.128;8.320;2023-05-10T00:45:36;1.40;;;1.13;;
12846;SDS011;6492;48.128;8.320;2023-05-10T00:49:38;1.20;;;1.00;;
12846;SDS011;6492;48.128;8.320;2023-05-10T00:53:41;1.30;;;1.20;;
12846;SDS011;6492;48.128;8.320;2023-05-10T00:57:52;1.10;;;1.00;;
12846;SDS011;6492;48.128;8.320;2023-05-10T01:01:56;4.30;;;1.20;;
12846;SDS011;6492;48.128;8.320;2023-05-10T01:05:59;1.30;;;1.20;;
12846;SDS011;6492;48.128;8.320;2023-05-10T01:10:01;2.17;;;1.77;;
12846;SDS011;6492;48.128;8.320;2023-05-10T01:14:02;0.97;;;0.90;;
12846;SDS011;6492;48.128;8.320;2023-05-10T01:18:07;1.30;;;1.20;;
12846;SDS011;6492;48.128;8.320;2023-05-10T01:22:14;1.80;;;1.50;;
12846;SDS011;6492;48.128;8.320;2023-05-10T01:26:51;1.70;;;1.60;;
12846;SDS011;6492;48.128;8.320;2023-05-10T01:31:22;1.23;;;1.23;;
12846;SDS011;6492;48.128;8.320;2023-05-10T01:35:34;1.53;;;1.43;;
12846;SDS011;6492;48.128;8.320;2023-05-10T01:39:42;2.87;;;1.20;;
12846;SDS011;6492;48.128;8.320;2023-05-10T01:43:50;1.60;;;1.40;;
12846;SDS011;6492;48.128;8.320;2023-05-10T01:47:58;1.83;;;1.57;;
12846;SDS011;6492;48.128;8.320;2023-05-10T01:52:08;1.50;;;1.40;;
12846;SDS011;6492;48.128;8.320;2023-05-10T01:56:12;1.80;;;1.17;;
12846;SDS011;6492;48.128;8.320;2023-05-10T02:00:16;1.27;;;1.17;;
12846;SDS011;6492;48.128;8.320;2023-05-10T02:04:20;1.70;;;1.03;;
12846;SDS011;6492;48.128;8.320;2023-05-10T02:08:26;1.33;;;1.23;;
12846;SDS011;6492;48.128;8.320;2023-05-10T02:12:28;1.27;;;1.10;;
12846;SDS011;6492;48.128;8.320;2023-05-10T02:16:31;1.00;;;1.00;;
12846;SDS011;6492;48.128;8.320;2023-05-10T02:20:34;1.47;;;1.00;;
12846;SDS011;6492;48.128;8.320;2023-05-10T02:24:39;1.13;;;0.80;;
12846;SDS011;6492;48.128;8.320;2023-05-10T02:28:41;1.27;;;0.90;;
12846;SDS011;6492;48.128;8.320;2023-05-10T02:32:44;1.07;;;0.90;;
12846;SDS011;6492;48.128;8.320;2023-05-10T02:36:47;1.47;;;1.13;;
12846;SDS011;6492;48.128;8.320;2023-05-10T02:40:52;0.93;;;0.83;;
12846;SDS011;6492;48.128;8.320;2023-05-10T02:44:56;1.57;;;1.17;;
12846;SDS011;6492;48.128;8.320;2023-05-10T02:49:01;1.20;;;1.10;;
12846;SDS011;6492;48.128;8.320;2023-05-10T02:53:05;1.00;;;1.00;;
12846;SDS011;6492;48.128;8.320;2023-05-10T02:57:15;1.30;;;1.20;;
12846;SDS011;6492;48.128;8.320;2023-05-10T03:01:19;1.27;;;1.17;;
12846;SDS011;6492;48.128;8.320;2023-05-10T03:05:21;1.30;;;1.20;;
12846;SDS011;6492;48.128;8.320;2023-05-10T03:09:23;1.13;;;1.10;;
12846;SDS011;6492;48.128;8.320;2023-05-10T03:13:28;1.47;;;1.37;;
12846;SDS011;6492;48.128;8.320;2023-05-10T03:17:35;1.20;;;1.10;;
12846;SDS011;6492;48.128;8.320;2023-05-10T03:21:43;1.30;;;1.00;;
12846;SDS011;6492;48.128;8.320;2023-05-10T03:25:55;3.90;;;1.43;;
12846;SDS011;6492;48.128;8.320;2023-05-10T03:30:00;1.40;;;1.13;;
12846;SDS011;6492;48.128;8.320;2023-05-10T03:34:03;2.27;;;1.87;;
12846;SDS011;6492;48.128;8.320;2023-05-10T03:38:06;1.40;;;1.30;;
12846;SDS011;6492;48.128;8.320;2023-05-10T03:42:08;1.83;;;1.27;;
12846;SDS011;6492;48.128;8.320;2023-05-10T03:46:13;2.57;;;1.40;;
12846;SDS011;6492;48.128;8.320;2023-05-10T03:50:14;1.77;;;1.37;;
12846;SDS011;6492;48.128;8.320;2023-05-10T03:54:17;1.60;;;1.30;;
12846;SDS011;6492;48.128;8.320;2023-05-10T03:58:18;2.03;;;1.40;;
12846;SDS011;6492;48.128;8.320;2023-05-10T04:02:22;1.83;;;1.40;;
12846;SDS011;6492;48.128;8.320;2023-05-10T04:06:23;1.60;;;1.50;;
12846;SDS011;6492;48.128;8.320;2023-05-10T04:10:25;1.77;;;1.40;;
12846;SDS011;6492;48.128;8.320;2023-05-10T04:14:27;3.70;;;1.60;;
12846;SDS011;6492;48.128;8.320;2023-05-10T04:18:30;1.67;;;1.30;;
12846;SDS011;6492;48.128;8.320;2023-05-10T04:22:32;1.57;;;1.47;;
12846;SDS011;6492;48.128;8.320;2023-05-10T04:26:35;2.20;;;1.60;;
12846;SDS011;6492;48.128;8.320;2023-05-10T04:30:37;2.70;;;1.60;;
12846;SDS011;6492;48.128;8.320;2023-05-10T04:34:40;1.67;;;1.57;;
12846;SDS011;6492;48.128;8.320;2023-05-10T04:38:42;2.53;;;2.07;;
12846;SDS011;6492;48.128;8.320;2023-05-10T04:42:59;2.53;;;2.33;;
12846;SDS011;6492;48.128;8.320;2023-05-10T04:47:01;3.30;;;2.03;;
12846;SDS011;6492;48.128;8.320;2023-05-10T04:51:04;3.90;;;1.97;;
12846;SDS011;6492;48.128;8.320;2023-05-10T04:55:09;2.80;;;1.77;;
12846;SDS011;6492;48.128;8.320;2023-05-10T04:59:11;2.00;;;1.80;;
12846;SDS011;6492;48.128;8.320;2023-05-10T05:07:50;2.00;;;1.80;;
12846;SDS011;6492;48.128;8.320;2023-05-10T05:11:52;2.70;;;2.17;;
12846;SDS011;6492;48.128;8.320;2023-05-10T05:16:02;1.70;;;1.60;;
12846;SDS011;6492;48.128;8.320;2023-05-10T05:20:10;1.60;;;1.50;;
12846;SDS011;6492;48.128;8.320;2023-05-10T05:24:22;1.40;;;1.30;;
12846;SDS011;6492;48.128;8.320;2023-05-10T05:28:27;2.30;;;1.43;;
12846;SDS011;6492;48.128;8.320;2023-05-10T05:32:32;2.40;;;1.70;;
12846;SDS011;6492;48.128;8.320;2023-05-10T05:36:35;1.97;;;1.80;;
12846;SDS011;6492;48.128;8.320;2023-05-10T05:40:39;1.90;;;1.60;;
12846;SDS011;6492;48.128;8.320;2023-05-10T05:44:41;2.10;;;1.70;;
12846;SDS011;6492;48.128;8.320;2023-05-10T05:48:43;1.97;;;1.80;;
12846;SDS011;6492;48.128;8.320;2023-05-10T05:52:45;2.27;;;1.90;;
12846;SDS011;6492;48.128;8.320;2023-05-10T05:56:48;1.63;;;1.53;;
12846;SDS011;6492;48.128;8.320;2023-05-10T06:00:49;2.20;;;1.70;;
12846;SDS011;6492;48.128;8.320;2023-05-10T06:04:52;1.63;;;1.50;;
12846;SDS011;6492;48.128;8.320;2023-05-10T06:08:53;1.30;;;1.20;;
12846;SDS011;6492;48.128;8.320;2023-05-10T06:12:56;1.30;;;1.20;;
12846;SDS011;6492;48.128;8.320;2023-05-10T06:16:58;1.60;;;1.40;;
12846;SDS011;6492;48.128;8.320;2023-05-10T06:21:00;2.57;;;1.37;;
12846;SDS011;6492;48.128;8.320;2023-05-10T06:25:02;1.40;;;1.30;;
12846;SDS011;6492;48.128;8.320;2023-05-10T06:29:06;2.30;;;1.37;;
12846;SDS011;6492;48.128;8.320;2023-05-10T06:33:08;2.33;;;1.37;;
12846;SDS011;6492;48.128;8.320;2023-05-10T06:37:09;1.87;;;1.30;;
12846;SDS011;6492;48.128;8.320;2023-05-10T06:41:11;2.20;;;1.10;;
12846;SDS011;6492;48.128;8.320;2023-05-10T06:45:15;2.57;;;1.10;;
12846;SDS011;6492;48.128;8.320;2023-05-10T06:49:17;2.27;;;1.30;;
12846;SDS011;6492;48.128;8.320;2023-05-10T06:53:19;1.93;;;1.00;;
12846;SDS011;6492;48.128;8.320;2023-05-10T06:57:20;1.70;;;1.00;;
12846;SDS011;6492;48.128;8.320;2023-05-10T07:01:23;1.37;;;0.90;;
12846;SDS011;6492;48.128;8.320;2023-05-10T07:05:25;1.27;;;0.80;;
12846;SDS011;6492;48.128;8.320;2023-05-10T07:09:29;1.17;;;1.07;;
12846;SDS011;6492;48.128;8.320;2023-05-10T07:13:31;1.40;;;0.90;;
12846;SDS011;6492;48.128;8.320;2023-05-10T07:17:34;0.87;;;0.87;;
12846;SDS011;6492;48.128;8.320;2023-05-10T07:21:36;0.90;;;0.90;;
12846;SDS011;6492;48.128;8.320;2023-05-10T07:25:40;0.60;;;0.60;;
12846;SDS011;6492;48.128;8.320;2023-05-10T07:29:49;0.60;;;0.60;;
12846;SDS011;6492;48.128;8.320;2023-05-10T07:33:52;1.37;;;0.70;;
12846;SDS011;6492;48.128;8.320;2023-05-10T07:37:54;0.63;;;0.40;;
12846;SDS011;6492;48.128;8.320;2023-05-10T07:41:56;0.70;;;0.70;;
12846;SDS011;6492;48.128;8.320;2023-05-10T07:45:57;0.67;;;0.60;;
12846;SDS011;6492;48.128;8.320;2023-05-10T07:50:01;0.73;;;0.60;;
12846;SDS011;6492;48.128;8.320;2023-05-10T07:54:03;0.67;;;0.63;;
12846;SDS011;6492;48.128;8.320;2023-05-10T07:58:05;0.97;;;0.53;;
12846;SDS011;6492;48.128;8.320;2023-05-10T08:02:07;0.40;;;0.40;;
12846;SDS011;6492;48.128;8.320;2023-05-10T08:06:10;1.87;;;0.40;;
12846;SDS011;6492;48.128;8.320;2023-05-10T08:10:12;0.40;;;0.40;;
12846;SDS011;6492;48.128;8.320;2023-05-10T08:14:14;0.60;;;0.53;;
12846;SDS011;6492;48.128;8.320;2023-05-10T08:18:16;0.60;;;0.60;;
12846;SDS011;6492;48.128;8.320;2023-05-10T08:22:22;1.30;;;0.60;;
12846;SDS011;6492;48.128;8.320;2023-05-10T08:26:24;0.77;;;0.60;;
12846;SDS011;6492;48.128;8.320;2023-05-10T08:30:26;1.23;;;1.13;;
12846;SDS011;6492;48.128;8.320;2023-05-10T08:34:28;1.50;;;0.73;;
12846;SDS011;6492;48.128;8.320;2023-05-10T08:38:32;3.47;;;1.13;;
12846;SDS011;6492;48.128;8.320;2023-05-10T08:42:34;1.67;;;1.10;;
12846;SDS011;6492;48.128;8.320;2023-05-10T08:46:37;2.00;;;1.40;;
12846;SDS011;6492;48.128;8.320;2023-05-10T08:50:46;1.33;;;1.13;;
12846;SDS011;6492;48.128;8.320;2023-05-10T08:54:51;2.13;;;1.10;;
12846;SDS011;6492;48.128;8.320;2023-05-10T08:58:53;2.03;;;1.33;;
12846;SDS011;6492;48.128;8.320;2023-05-10T09:02:55;2.30;;;1.30;;
12846;SDS011;6492;48.128;8.320;2023-05-10T09:06:57;1.20;;;1.10;;
12846;SDS011;6492;48.128;8.320;2023-05-10T09:11:01;2.40;;;1.50;;
12846;SDS011;6492;48.128;8.320;2023-05-10T09:19:36;1.30;;;1.20;;
12846;SDS011;6492;48.128;8.320;2023-05-10T09:23:42;2.33;;;1.20;;
12846;SDS011;6492;48.128;8.320;2023-05-10T09:27:46;2.93;;;1.07;;
12846;SDS011;6492;48.128;8.320;2023-05-10T09:31:49;1.73;;;1.10;;
12846;SDS011;6492;48.128;8.320;2023-05-10T09:35:54;1.30;;;0.90;;
12846;SDS011;6492;48.128;8.320;2023-05-10T09:40:07;1.20;;;0.83;;
12846;SDS011;6492;48.128;8.320;2023-05-10T09:44:15;1.20;;;1.10;;
12846;SDS011;6492;48.128;8.320;2023-05-10T09:48:18;2.70;;;1.10;;
12846;SDS011;6492;48.128;8.320;2023-05-10T09:52:24;1.10;;;1.00;;
12846;SDS011;6492;48.128;8.320;2023-05-10T09:56:33;1.20;;;1.00;;
12846;SDS011;6492;48.128;8.320;2023-05-10T10:00:37;1.27;;;1.17;;
12846;SDS011;6492;48.128;8.320;2023-05-10T10:04:42;1.97;;;0.97;;
12846;SDS011;6492;48.128;8.320;2023-05-10T10:08:44;0.53;;;0.53;;
12846;SDS011;6492;48.128;8.320;2023-05-10T10:12:47;1.07;;;0.80;;
12846;SDS011;6492;48.128;8.320;2023-05-10T10:16:50;1.33;;;0.97;;
12846;SDS011;6492;48.128;8.320;2023-05-10T10:20:52;1.20;;;1.03;;
12846;SDS011;6492;48.128;8.320;2023-05-10T10:24:55;1.00;;;0.90;;
12846;SDS011;6492;48.128;8.320;2023-05-10T10:29:00;1.57;;;1.03;;
12846;SDS011;6492;48.128;8.320;2023-05-10T10:33:23;1.23;;;1.13;;
12846;SDS011;6492;48.128;8.320;2023-05-10T10:37:43;1.33;;;1.17;;
12846;SDS011;6492;48.128;8.320;2023-05-10T10:41:49;1.30;;;1.13;;
12846;SDS011;6492;48.128;8.320;2023-05-10T10:46:11;2.87;;;1.13;;
12846;SDS011;6492;48.128;8.320;2023-05-10T10:50:18;1.60;;;1.20;;
12846;SDS011;6492;48.128;8.320;2023-05-10T10:54:26;1.87;;;1.43;;
12846;SDS011;6492;48.128;8.320;2023-05-10T10:58:29;3.00;;;1.73;;
12846;SDS011;6492;48.128;8.320;2023-05-10T11:02:32;2.53;;;1.40;;
12846;SDS011;6492;48.128;8.320;2023-05-10T11:06:36;1.60;;;1.40;;
12846;SDS011;6492;48.128;8.320;2023-05-10T11:10:40;2.63;;;1.17;;
12846;SDS011;6492;48.128;8.320;2023-05-10T11:14:52;2.83;;;1.57;;
12846;SDS011;6492;48.128;8.320;2023-05-10T11:18:58;2.50;;;1.60;;
12846;SDS011;6492;48.128;8.320;2023-05-10T11:23:11;2.70;;;1.53;;
12846;SDS011;6492;48.128;8.320;2023-05-10T11:27:15;1.57;;;1.40;;
12846;SDS011;6492;48.128;8.320;2023-05-10T11:31:18;1.60;;;1.33;;
12846;SDS011;6492;48.128;8.320;2023-05-10T11:35:20;4.40;;;1.50;;
12846;SDS011;6492;48.128;8.320;2023-05-10T11:39:26;1.50;;;1.10;;
12846;SDS011;6492;48.128;8.320;2023-05-10T11:43:29;3.30;;;1.20;;
12846;SDS011;6492;48.128;8.320;2023-05-10T11:47:31;2.40;;;1.30;;
12846;SDS011;6492;48.128;8.320;2023-05-10T11:51:33;2.43;;;1.20;;
12846;SDS011;6492;48.128;8.320;2023-05-10T11:55:37;2.97;;;1.80;;
12846;SDS011;6492;48.128;8.320;2023-05-10T11:59:39;2.70;;;1.57;;
12846;SDS011;6492;48.128;8.320;2023-05-10T12:03:40;3.60;;;1.70;;
12846;SDS011;6492;48.128;8.320;2023-05-10T12:07:42;1.53;;;1.13;;
12846;SDS011;6492;48.128;8.320;2023-05-10T12:11:46;3.63;;;1.70;;
12846;SDS011;6492;48.128;8.320;2023-05-10T12:15:48;1.70;;;1.30;;
12846;SDS011;6492;48.128;8.320;2023-05-10T12:19:51;2.10;;;1.70;;
12846;SDS011;6492;48.128;8.320;2023-05-10T12:23:53;1.63;;;1.20;;
12846;SDS011;6492;48.128;8.320;2023-05-10T12:28:04;1.23;;;1.10;;
12846;SDS011;6492;48.128;8.320;2023-05-10T12:32:07;2.37;;;1.40;;
12846;SDS011;6492;48.128;8.320;2023-05-10T12:36:09;1.20;;;0.87;;
12846;SDS011;6492;48.128;8.320;2023-05-10T12:40:12;2.90;;;0.95;;
12846;SDS011;6492;48.128;8.320;2023-05-10T12:44:16;4.40;;;1.50;;
12846;SDS011;6492;48.128;8.320;2023-05-10T12:48:18;4.80;;;1.50;;
12846;SDS011;6492;48.128;8.320;2023-05-10T12:52:20;1.90;;;1.50;;
12846;SDS011;6492;48.128;8.320;2023-05-10T12:56:22;2.37;;;1.43;;
12846;SDS011;6492;48.128;8.320;2023-05-10T13:00:25;1.70;;;1.40;;
12846;SDS011;6492;48.128;8.320;2023-05-10T13:04:27;2.17;;;1.23;;
12846;SDS011;6492;48.128;8.320;2023-05-10T13:08:28;3.70;;;1.50;;
12846;SDS011;6492;48.128;8.320;2023-05-10T13:12:33;2.67;;;1.13;;
12846;SDS011;6492;48.128;8.320;2023-05-10T13:16:36;1.67;;;1.20;;
12846;SDS011;6492;48.128;8.320;2023-05-10T13:20:38;2.67;;;1.50;;
12846;SDS011;6492;48.128;8.320;2023-05-10T13:24:40;3.03;;;1.30;;
12846;SDS011;6492;48.128;8.320;2023-05-10T13:28:43;2.90;;;1.20;;
12846;SDS011;6492;48.128;8.320;2023-05-10T13:32:47;0.70;;;0.70;;
12846;SDS011;6492;48.128;8.320;2023-05-10T13:36:49;1.40;;;1.17;;
12846;SDS011;6492;48.128;8.320;2023-05-10T13:40:51;4.90;;;1.03;;
12846;SDS011;6492;48.128;8.320;2023-05-10T13:44:53;0.90;;;0.50;;
12846;SDS011;6492;48.128;8.320;2023-05-10T13:48:56;3.53;;;1.20;;
12846;SDS011;6492;48.128;8.320;2023-05-10T13:52:58;0.60;;;0.60;;
12846;SDS011;6492;48.128;8.320;2023-05-10T13:57:00;0.93;;;0.60;;
12846;SDS011;6492;48.128;8.320;2023-05-10T14:01:02;1.03;;;0.93;;
12846;SDS011;6492;48.128;8.320;2023-05-10T14:05:06;1.43;;;1.10;;
12846;SDS011;6492;48.128;8.320;2023-05-10T14:09:08;0.80;;;0.80;;
12846;SDS011;6492;48.128;8.320;2023-05-10T14:13:10;1.47;;;1.10;;
12846;SDS011;6492;48.128;8.320;2023-05-10T14:17:12;1.77;;;1.10;;
12846;SDS011;6492;48.128;8.320;2023-05-10T14:25:29;2.57;;;0.90;;
12846;SDS011;6492;48.128;8.320;2023-05-10T14:29:31;1.80;;;0.90;;
12846;SDS011;6492;48.128;8.320;2023-05-10T14:33:40;2.20;;;1.00;;
12846;SDS011;6492;48.128;8.320;2023-05-10T14:37:43;0.77;;;0.70;;
12846;SDS011;6492;48.128;8.320;2023-05-10T14:41:48;3.20;;;0.97;;
12846;SDS011;6492;48.128;8.320;2023-05-10T14:45:51;2.13;;;1.07;;
12846;SDS011;6492;48.128;8.320;2023-05-10T14:49:54;0.93;;;0.60;;
12846;SDS011;6492;48.128;8.320;2023-05-10T14:53:57;1.00;;;0.83;;
12846;SDS011;6492;48.128;8.320;2023-05-10T14:57:58;0.97;;;0.80;;
12846;SDS011;6492;48.128;8.320;2023-05-10T15:02:00;0.77;;;0.77;;
12846;SDS011;6492;48.128;8.320;2023-05-10T15:06:05;0.80;;;0.80;;
12846;SDS011;6492;48.128;8.320;2023-05-10T15:10:10;1.10;;;0.70;;
12846;SDS011;6492;48.128;8.320;2023-05-10T15:14:13;2.37;;;0.87;;
12846;SDS011;6492;48.128;8.320;2023-05-10T15:18:15;0.60;;;0.60;;
12846;SDS011;6492;48.128;8.320;2023-05-10T15:22:17;1.10;;;0.97;;
12846;SDS011;6492;48.128;8.320;2023-05-10T15:26:21;2.40;;;1.00;;
12846;SDS011;6492;48.128;8.320;2023-05-10T15:30:33;1.53;;;0.93;;
12846;SDS011;6492;48.128;8.320;2023-05-10T15:34:41;0.70;;;0.63;;
12846;SDS011;6492;48.128;8.320;2023-05-10T15:43:05;0.60;;;0.60;;
12846;SDS011;6492;48.128;8.320;2023-05-10T15:47:07;0.70;;;0.70;;
12846;SDS011;6492;48.128;8.320;2023-05-10T15:51:09;0.50;;;0.50;;
12846;SDS011;6492;48.128;8.320;2023-05-10T15:55:16;0.80;;;0.70;;
12846;SDS011;6492;48.128;8.320;2023-05-10T15:59:38;0.97;;;0.87;;
12846;SDS011;6492;48.128;8.320;2023-05-10T16:03:40;0.60;;;0.60;;
12846;SDS011;6492;48.128;8.320;2023-05-10T16:07:43;1.20;;;0.70;;
12846;SDS011;6492;48.128;8.320;2023-05-10T16:16:12;1.40;;;0.67;;
12846;SDS011;6492;48.128;8.320;2023-05-10T16:20:14;1.60;;;0.67;;
12846;SDS011;6492;48.128;8.320;2023-05-10T16:24:16;0.70;;;0.50;;
12846;SDS011;6492;48.128;8.320;2023-05-10T16:28:18;0.43;;;0.40;;
12846;SDS011;6492;48.128;8.320;2023-05-10T16:32:22;0.40;;;0.40;;
12846;SDS011;6492;48.128;8.320;2023-05-10T16:36:24;0.60;;;0.60;;
12846;SDS011;6492;48.128;8.320;2023-05-10T16:40:29;1.40;;;0.70;;
12846;SDS011;6492;48.128;8.320;2023-05-10T16:44:31;2.53;;;0.70;;
12846;SDS011;6492;48.128;8.320;2023-05-10T16:48:34;0.80;;;0.80;;
12846;SDS011;6492;48.128;8.320;2023-05-10T16:52:36;0.63;;;0.63;;
12846;SDS011;6492;48.128;8.320;2023-05-10T16:56:38;1.17;;;0.73;;
12846;SDS011;6492;48.128;8.320;2023-05-10T17:00:41;0.80;;;0.80;;
12846;SDS011;6492;48.128;8.320;2023-05-10T17:04:58;0.87;;;0.83;;
12846;SDS011;6492;48.128;8.320;2023-05-10T17:09:00;2.60;;;1.43;;
12846;SDS011;6492;48.128;8.320;2023-05-10T17:13:02;1.53;;;1.10;;
12846;SDS011;6492;48.128;8.320;2023-05-10T17:17:04;2.87;;;2.47;;
12846;SDS011;6492;48.128;8.320;2023-05-10T17:21:08;1.90;;;0.63;;
12846;SDS011;6492;48.128;8.320;2023-05-10T17:47:14;1.23;;;1.13;;
12846;SDS011;6492;48.128;8.320;2023-05-10T18:00:13;1.10;;;1.00;;
12846;SDS011;6492;48.128;8.320;2023-05-10T18:04:34;2.23;;;1.30;;
12846;SDS011;6492;48.128;8.320;2023-05-10T18:08:43;1.20;;;0.93;;
12846;SDS011;6492;48.128;8.320;2023-05-10T18:12:58;1.27;;;1.00;;
12846;SDS011;6492;48.128;8.320;2023-05-10T18:17:09;1.00;;;1.00;;
12846;SDS011;6492;48.128;8.320;2023-05-10T18:21:12;5.20;;;3.77;;
12846;SDS011;6492;48.128;8.320;2023-05-10T18:25:14;3.00;;;2.20;;
12846;SDS011;6492;48.128;8.320;2023-05-10T18:29:17;2.00;;;1.80;;
12846;SDS011;6492;48.128;8.320;2023-05-10T18:41:56;1.50;;;1.40;;
12846;SDS011;6492;48.128;8.320;2023-05-10T18:46:17;1.73;;;1.63;;
12846;SDS011;6492;48.128;8.320;2023-05-10T18:50:20;2.83;;;2.47;;
12846;SDS011;6492;48.128;8.320;2023-05-10T18:54:22;3.17;;;2.63;;
12846;SDS011;6492;48.128;8.320;2023-05-10T18:58:36;2.83;;;2.63;;
12846;SDS011;6492;48.128;8.320;2023-05-10T19:02:37;1.40;;;1.30;;
12846;SDS011;6492;48.128;8.320;2023-05-10T19:06:41;1.17;;;0.97;;
12846;SDS011;6492;48.128;8.320;2023-05-10T19:15:07;1.20;;;0.87;;
12846;SDS011;6492;48.128;8.320;2023-05-10T19:19:09;1.53;;;0.93;;
12846;SDS011;6492;48.128;8.320;2023-05-10T19:27:54;2.10;;;1.90;;
12846;SDS011;6492;48.128;8.320;2023-05-10T19:31:57;6.40;;;4.90;;
12846;SDS011;6492;48.128;8.320;2023-05-10T19:35:59;2.27;;;1.90;;
12846;SDS011;6492;48.128;8.320;2023-05-10T19:40:01;1.30;;;1.20;;
12846;SDS011;6492;48.128;8.320;2023-05-10T19:44:05;1.27;;;1.17;;
12846;SDS011;6492;48.128;8.320;2023-05-10T19:52:45;0.70;;;0.70;;
12846;SDS011;6492;48.128;8.320;2023-05-10T19:56:53;0.77;;;0.77;;
12846;SDS011;6492;48.128;8.320;2023-05-10T20:05:26;1.10;;;1.00;;
12846;SDS011;6492;48.128;8.320;2023-05-10T20:14:11;0.60;;;0.60;;
12846;SDS011;6492;48.128;8.320;2023-05-10T20:18:14;0.70;;;0.70;;
12846;SDS011;6492;48.128;8.320;2023-05-10T20:22:16;1.07;;;0.80;;
12846;SDS011;6492;48.128;8.320;2023-05-10T20:26:20;1.37;;;0.80;;
12846;SDS011;6492;48.128;8.320;2023-05-10T20:30:22;0.90;;;0.80;;
12846;SDS011;6492;48.128;8.320;2023-05-10T20:34:25;1.03;;;0.80;;
12846;SDS011;6492;48.128;8.320;2023-05-10T20:38:27;2.23;;;0.90;;
12846;SDS011;6492;48.128;8.320;2023-05-10T20:42:32;1.00;;;0.70;;
12846;SDS011;6492;48.128;8.320;2023-05-10T20:46:34;1.73;;;0.97;;
12846;SDS011;6492;48.128;8.320;2023-05-10T20:59:23;0.80;;;0.80;;
12846;SDS011;6492;48.128;8.320;2023-05-10T21:03:25;0.77;;;0.70;;
12846;SDS011;6492;48.128;8.320;2023-05-10T21:07:29;0.63;;;0.63;;
12846;SDS011;6492;48.128;8.320;2023-05-10T21:11:32;1.63;;;0.67;;
12846;SDS011;6492;48.128;8.320;2023-05-10T21:15:34;1.90;;;0.97;;
12846;SDS011;6492;48.128;8.320;2023-05-10T21:19:36;1.23;;;0.90;;
12846;SDS011;6492;48.128;8.320;2023-05-10T21:23:39;1.63;;;1.00;;
12846;SDS011;6492;48.128;8.320;2023-05-10T21:27:41;0.93;;;0.80;;
12846;SDS011;6492;48.128;8.320;2023-05-10T21:31:43;0.70;;;0.70;;
12846;SDS011;6492;48.128;8.320;2023-05-10T21:35:45;0.87;;;0.83;;
12846;SDS011;6492;48.128;8.320;2023-05-10T21:39:49;2.03;;;1.30;;
12846;SDS011;6492;48.128;8.320;2023-05-10T21:43:51;1.67;;;0.90;;
12846;SDS011;6492;48.128;8.320;2023-05-10T21:47:53;0.73;;;0.73;;
12846;SDS011;6492;48.128;8.320;2023-05-10T21:51:55;0.83;;;0.77;;
12846;SDS011;6492;48.128;8.320;2023-05-10T21:55:58;1.20;;;1.03;;
12846;SDS011;6492;48.128;8.320;2023-05-10T22:00:00;0.60;;;0.60;;
12846;SDS011;6492;48.128;8.320;2023-05-10T22:04:02;1.63;;;0.87;;
12846;SDS011;6492;48.128;8.320;2023-05-10T22:08:04;0.90;;;0.90;;
12846;SDS011;6492;48.128;8.320;2023-05-10T22:12:08;1.40;;;0.90;;
12846;SDS011;6492;48.128;8.320;2023-05-10T22:16:09;0.63;;;0.63;;
12846;SDS011;6492;48.128;8.320;2023-05-10T22:20:11;1.20;;;1.10;;
12846;SDS011;6492;48.128;8.320;2023-05-10T22:24:13;0.80;;;0.80;;
12846;SDS011;6492;48.128;8.320;2023-05-10T22:28:18;0.73;;;0.73;;
12846;SDS011;6492;48.128;8.320;2023-05-10T22:32:20;0.60;;;0.60;;
12846;SDS011;6492;48.128;8.320;2023-05-10T22:36:22;0.63;;;0.63;;
12846;SDS011;6492;48.128;8.320;2023-05-10T22:40:24;1.40;;;0.77;;
12846;SDS011;6492;48.128;8.320;2023-05-10T22:44:27;1.70;;;0.90;;
12846;SDS011;6492;48.128;8.320;2023-05-10T22:48:29;1.10;;;0.90;;
12846;SDS011;6492;48.128;8.320;2023-05-10T22:57:06;0.60;;;0.60;;
12846;SDS011;6492;48.128;8.320;2023-05-10T23:01:09;2.17;;;0.80;;
12846;SDS011;6492;48.128;8.320;2023-05-10T23:05:11;0.90;;;0.90;;
12846;SDS011;6492;48.128;8.320;2023-05-10T23:09:13;0.93;;;0.90;;
12846;SDS011;6492;48.128;8.320;2023-05-10T23:13:15;1.20;;;1.10;;
12846;SDS011;6492;48.128;8.320;2023-05-10T23:17:19;0.80;;;0.80;;
12846;SDS011;6492;48.128;8.320;2023-05-10T23:21:20;1.63;;;1.47;;
12846;SDS011;6492;48.128;8.320;2023-05-10T23:25:24;1.00;;;0.90;;
12846;SDS011;6492;48.128;8.320;2023-05-10T23:29:25;0.80;;;0.80;;
12846;SDS011;6492;48.128;8.320;2023-05-10T23:33:28;1.53;;;0.90;;
12846;SDS011;6492;48.128;8.320;2023-05-10T23:37:30;1.00;;;0.97;;
12846;SDS011;6492;48.128;8.320;2023-05-10T23:41:32;0.93;;;0.77;;
12846;SDS011;6492;48.128;8.320;2023-05-10T23:45:34;2.20;;;0.80;;
12846;SDS011;6492;48.128;8.320;2023-05-10T23:49:37;1.13;;;0.80;;
12846;SDS011;6492;48.128;8.320;2023-05-10T23:53:41;1.10;;;1.00;;
12846;SDS011;6492;48.128;8.320;2023-05-10T23:57:42;0.80;;;0.67;;
